Time;durP1;ratioP1;P1;durP2;ratioP2;P2;SDS_P1;SDS_P2;PMS_P1;PMS_P2;Temp;Humidity;BMP_temperature;BMP_pressure;BME280_temperature;BME280_humidity;BME280_pressure;Samples;Min_cycle;Max_cycle;Signal;HPM_P1;HPM_P2
2022/03/03 00:00:20;;;;;;;21.20;10.77;;;;;;;2.04;60.82;101941.63;5075952;28;20020;-76
2022/03/03 00:02:46;;;;;;;19.63;9.82;;;;;;;2.08;60.92;101958.06;5076021;28;20023;-76
2022/03/03 00:05:12;;;;;;;21.35;10.50;;;;;;;2.09;60.48;101949.19;5057834;28;20430;-76
2022/03/03 00:07:38;;;;;;;20.27;9.25;;;;;;;2.08;60.35;101951.00;5075820;28;20031;-76
2022/03/03 00:10:05;;;;;;;22.35;10.23;;;;;;;2.08;60.42;101948.38;5075973;28;20028;-76
2022/03/03 00:12:31;;;;;;;20.33;11.13;;;;;;;2.09;60.44;101946.56;5075339;28;20037;-76
2022/03/03 00:14:57;;;;;;;21.23;10.85;;;;;;;2.08;60.36;101951.00;5075804;28;20115;-76
2022/03/03 00:17:22;;;;;;;21.00;11.13;;;;;;;2.03;60.51;101939.97;5075641;28;20119;-76
2022/03/03 00:19:48;;;;;;;21.40;11.00;;;;;;;2.05;60.53;101945.13;5075839;28;20032;-76
2022/03/03 00:22:13;;;;;;;19.90;10.70;;;;;;;2.02;60.59;101940.94;5075867;28;20078;-76
2022/03/03 00:24:39;;;;;;;19.40;9.88;;;;;;;1.93;60.84;101925.81;5075533;28;20042;-76
2022/03/03 00:27:05;;;;;;;22.40;12.00;;;;;;;2.00;60.67;101942.00;5075478;28;20047;-76
2022/03/03 00:29:31;;;;;;;20.27;9.82;;;;;;;1.94;60.92;101932.78;5075010;28;20118;-76
2022/03/03 00:31:56;;;;;;;22.58;10.52;;;;;;;1.93;60.89;101938.97;5074082;28;20048;-76
2022/03/03 00:34:21;;;;;;;19.92;9.20;;;;;;;1.91;61.14;101938.22;5074892;28;20126;-76
2022/03/03 00:36:47;;;;;;;20.55;10.15;;;;;;;1.84;61.16;101927.34;5075639;28;20135;-76
2022/03/03 00:39:12;;;;;;;20.52;10.13;;;;;;;1.82;61.16;101931.88;5075239;28;20037;-76
2022/03/03 00:41:37;;;;;;;23.48;10.43;;;;;;;1.80;61.36;101932.94;5061252;28;20031;-76
2022/03/03 00:44:03;;;;;;;24.23;11.93;;;;;;;1.77;61.09;101923.47;5056776;28;20028;-76
2022/03/03 00:46:28;;;;;;;21.95;11.00;;;;;;;1.77;61.56;101923.47;5071975;28;20035;-76
2022/03/03 00:48:55;;;;;;;21.10;10.50;;;;;;;1.77;61.46;101928.75;5072218;28;20926;-76
2022/03/03 00:51:21;;;;;;;22.15;10.23;;;;;;;1.65;61.76;101922.59;5072272;28;20028;-76
2022/03/03 00:53:47;;;;;;;21.33;11.02;;;;;;;1.59;62.50;101920.41;5072086;28;20115;-76
2022/03/03 00:56:13;;;;;;;22.65;11.55;;;;;;;1.57;63.63;101926.72;5070722;28;20119;-76
2022/03/03 00:58:39;;;;;;;20.17;9.90;;;;;;;1.47;64.54;101918.69;5072818;28;20395;-76
2022/03/03 01:01:04;;;;;;;24.17;10.10;;;;;;;1.37;63.41;101913.25;5076236;28;20028;-76
2022/03/03 01:03:30;;;;;;;20.23;10.05;;;;;;;1.38;63.41;101924.59;5070832;28;20029;-76
2022/03/03 01:05:55;;;;;;;23.48;10.57;;;;;;;1.34;64.39;101928.38;5071773;28;20032;-76
2022/03/03 01:08:21;;;;;;;21.02;10.30;;;;;;;1.25;64.12;101928.09;5071596;28;20051;-76
2022/03/03 01:10:46;;;;;;;23.17;12.07;;;;;;;1.20;64.68;101913.59;5070479;28;20695;-76
2022/03/03 01:13:11;;;;;;;23.15;11.52;;;;;;;1.17;64.55;101916.44;5070711;28;20035;-76
2022/03/03 01:15:37;;;;;;;23.05;11.27;;;;;;;1.19;63.97;101925.91;5071911;28;20399;-76
2022/03/03 01:18:03;;;;;;;22.60;10.90;;;;;;;1.18;65.68;101924.25;5071701;28;20033;-76
2022/03/03 01:20:28;;;;;;;22.92;11.60;;;;;;;1.13;64.78;101922.84;5071403;28;20172;-76
2022/03/03 01:22:54;;;;;;;19.27;10.15;;;;;;;1.12;64.62;101916.75;5071719;28;20078;-76
2022/03/03 01:25:20;;;;;;;21.50;10.85;;;;;;;1.11;65.48;101920.34;5071636;28;20036;-76
2022/03/03 01:27:45;;;;;;;22.67;11.18;;;;;;;1.03;67.24;101913.00;5071459;28;20029;-76
2022/03/03 01:30:12;;;;;;;25.15;12.73;;;;;;;0.90;67.27;101914.00;5071697;28;20083;-76
2022/03/03 01:32:37;;;;;;;21.80;10.45;;;;;;;0.80;67.60;101911.16;5070713;28;20134;-76
2022/03/03 01:35:04;;;;;;;21.20;10.90;;;;;;;0.68;67.93;101904.97;5071479;28;20496;-75
2022/03/03 01:37:29;;;;;;;23.77;11.90;;;;;;;0.63;67.73;101901.84;5069974;28;20029;-76
2022/03/03 01:39:54;;;;;;;22.92;11.45;;;;;;;0.52;69.07;101888.59;5071189;28;20082;-75
2022/03/03 01:42:20;;;;;;;23.00;12.13;;;;;;;0.49;69.25;101894.06;5069451;28;20376;-76
2022/03/03 01:44:46;;;;;;;22.42;10.57;;;;;;;0.44;69.76;101886.50;5069971;28;20036;-76
2022/03/03 01:47:30;;;;;;;22.20;11.32;;;;;;;0.37;69.43;101887.88;5069818;28;20089;-75
2022/03/03 01:49:57;;;;;;;23.95;11.13;;;;;;;0.30;70.46;101879.56;5069932;28;20071;-76
2022/03/03 01:52:22;;;;;;;21.33;10.02;;;;;;;0.24;69.93;101885.25;5070891;28;20020;-75
2022/03/03 01:54:48;;;;;;;22.75;11.93;;;;;;;0.13;70.64;101883.34;5071177;28;20089;-75
2022/03/03 01:57:17;;;;;;;20.33;10.95;;;;;;;0.03;71.28;101874.41;5069913;28;20055;-76
2022/03/03 01:59:43;;;;;;;23.83;11.35;;;;;;;-0.01;71.26;101875.56;5069679;28;20025;-76
2022/03/03 02:02:10;;;;;;;23.63;12.93;;;;;;;-0.05;71.45;101884.59;5070395;28;20024;-76
2022/03/03 02:04:36;;;;;;;25.52;11.88;;;;;;;-0.14;71.06;101878.16;5070718;28;20027;-75
2022/03/03 02:07:02;;;;;;;22.40;11.32;;;;;;;-0.15;70.56;101886.97;5070427;28;20025;-76
2022/03/03 02:09:28;;;;;;;22.20;11.43;;;;;;;-0.17;71.21;101875.72;5069167;28;20086;-76
2022/03/03 02:11:53;;;;;;;23.20;12.20;;;;;;;-0.16;71.10;101877.41;5070578;28;20028;-76
2022/03/03 02:14:19;;;;;;;24.65;11.00;;;;;;;-0.28;72.63;101860.72;5070645;28;20032;-75
2022/03/03 02:16:44;;;;;;;24.15;11.10;;;;;;;-0.32;72.41;101861.84;5070611;28;20472;-75
2022/03/03 02:19:17;;;;;;;22.25;10.90;;;;;;;-0.24;70.95;101871.84;5070122;28;20063;-76
2022/03/03 02:21:48;;;;;;;22.58;11.65;;;;;;;-0.12;71.17;101875.44;5071634;28;20033;-75
2022/03/03 02:24:14;;;;;;;23.02;12.25;;;;;;;-0.05;69.86;101882.78;5070366;28;20070;-75
2022/03/03 02:26:40;;;;;;;21.95;11.32;;;;;;;-0.04;69.70;101868.72;5070441;28;20545;-75
2022/03/03 02:29:06;;;;;;;25.20;12.38;;;;;;;-0.07;69.61;101866.31;5070283;28;20028;-76
2022/03/03 02:31:32;;;;;;;21.90;10.82;;;;;;;-0.01;69.62;101865.06;5070353;28;20035;-75
2022/03/03 02:33:58;;;;;;;24.08;12.30;;;;;;;0.01;69.61;101867.59;5070037;28;20063;-76
2022/03/03 02:36:26;;;;;;;25.73;13.57;;;;;;;0.06;69.68;101857.63;5069020;28;20028;-75
2022/03/03 02:38:53;;;;;;;25.85;12.93;;;;;;;0.09;69.75;101862.66;5070295;28;20455;-75
2022/03/03 02:41:19;;;;;;;21.88;12.88;;;;;;;0.12;68.66;101860.66;5069835;28;20021;-76
2022/03/03 02:43:46;;;;;;;26.00;14.05;;;;;;;0.17;68.36;101853.34;5068451;28;20041;-75
2022/03/03 02:46:11;;;;;;;25.13;11.38;;;;;;;0.22;68.33;101859.09;5069804;28;20524;-75
2022/03/03 02:48:37;;;;;;;24.60;12.20;;;;;;;0.18;68.68;101847.16;5069874;28;20115;-76
2022/03/03 02:51:03;;;;;;;23.90;12.75;;;;;;;0.22;68.84;101858.28;5070073;28;20372;-76
2022/03/03 02:53:29;;;;;;;23.45;11.63;;;;;;;0.11;68.87;101840.66;5069916;28;20055;-76
2022/03/03 02:55:54;;;;;;;25.67;12.57;;;;;;;0.10;69.53;101838.13;5070080;28;20036;-76
2022/03/03 02:58:20;;;;;;;22.42;11.75;;;;;;;0.07;70.21;101840.94;5068333;28;20043;-75
2022/03/03 03:00:47;;;;;;;22.20;13.68;;;;;;;-0.02;69.39;101843.25;5069890;28;20119;-75
2022/03/03 03:03:14;;;;;;;24.02;12.38;;;;;;;-0.01;69.63;101855.41;5069710;28;20032;-76
2022/03/03 03:05:40;;;;;;;22.17;11.43;;;;;;;-0.04;69.69;101853.00;5067857;28;20038;-76
2022/03/03 03:08:05;;;;;;;21.30;12.50;;;;;;;-0.13;71.18;101845.75;5068043;28;20145;-75
2022/03/03 03:10:31;;;;;;;23.45;11.85;;;;;;;-0.17;71.57;101852.13;5069409;28;20125;-75
2022/03/03 03:12:57;;;;;;;21.40;10.90;;;;;;;-0.35;72.24;101835.84;5069554;28;20060;-75
2022/03/03 03:15:22;;;;;;;24.33;11.48;;;;;;;-0.30;72.48;101848.66;5069721;28;20035;-75
2022/03/03 03:17:48;;;;;;;20.08;11.88;;;;;;;-0.35;73.33;101845.50;5069723;28;20130;-76
2022/03/03 03:20:13;;;;;;;22.75;11.35;;;;;;;-0.42;72.81;101849.44;5069655;28;20392;-75
2022/03/03 03:22:39;;;;;;;26.25;11.88;;;;;;;-0.51;72.61;101836.00;5069548;28;20029;-75
2022/03/03 03:25:08;;;;;;;27.02;12.75;;;;;;;-0.52;72.88;101842.22;5069477;28;20040;-75
2022/03/03 03:27:34;;;;;;;26.23;12.15;;;;;;;-0.60;72.34;101841.88;5069333;28;20058;-75
2022/03/03 03:30:00;;;;;;;24.25;11.80;;;;;;;-0.67;72.95;101845.81;5069494;28;20028;-75
2022/03/03 03:32:25;;;;;;;22.02;12.00;;;;;;;-0.76;73.45;101833.31;5069206;28;20090;-75
2022/03/03 03:34:50;;;;;;;30.67;14.00;;;;;;;-0.78;73.22;101836.03;5069603;28;20037;-76
2022/03/03 03:37:16;;;;;;;23.80;12.73;;;;;;;-0.81;74.26;101835.38;5069661;28;20426;-75
2022/03/03 03:39:42;;;;;;;27.42;12.43;;;;;;;-0.94;73.72;101827.50;5070042;28;20029;-74
2022/03/03 03:42:08;;;;;;;23.48;12.82;;;;;;;-1.00;73.69;101826.06;5053611;28;20146;-75
2022/03/03 03:44:34;;;;;;;23.17;11.75;;;;;;;-0.93;74.23;101827.38;5067901;28;20109;-75
2022/03/03 03:46:59;;;;;;;24.95;12.88;;;;;;;-0.94;74.49;101841.41;5068909;28;20479;-75
2022/03/03 03:49:25;;;;;;;24.38;11.48;;;;;;;-0.97;74.34;101835.50;5067931;28;20039;-75
2022/03/03 03:51:50;;;;;;;26.70;12.02;;;;;;;-1.03;74.76;101826.28;5067925;28;20024;-75
2022/03/03 03:54:16;;;;;;;25.38;12.38;;;;;;;-1.05;74.69;101824.69;5067995;28;20480;-75
2022/03/03 03:56:42;;;;;;;23.88;10.73;;;;;;;-1.08;74.97;101830.13;5069170;28;20402;-75
2022/03/03 03:59:07;;;;;;;24.15;13.00;;;;;;;-1.08;74.48;101832.75;5069313;28;20464;-75
2022/03/03 04:01:32;;;;;;;22.13;9.93;;;;;;;-1.15;75.15;101835.75;5068843;28;20032;-75
2022/03/03 04:03:58;;;;;;;25.63;13.52;;;;;;;-1.20;75.67;101829.13;5069206;28;20020;-75
2022/03/03 04:06:23;;;;;;;24.27;12.60;;;;;;;-1.28;75.56;101823.50;5069127;28;20021;-75
2022/03/03 04:08:49;;;;;;;23.88;12.18;;;;;;;-1.26;75.63;101822.47;5068815;28;20032;-75
2022/03/03 04:11:14;;;;;;;22.98;11.90;;;;;;;-1.27;76.34;101819.97;5067659;28;20033;-75
2022/03/03 04:13:39;;;;;;;25.55;12.45;;;;;;;-1.25;76.40;101821.56;5068763;28;20037;-75
2022/03/03 04:16:05;;;;;;;29.08;13.75;;;;;;;-1.26;76.06;101813.78;5069135;28;20028;-75
2022/03/03 04:18:30;;;;;;;22.05;10.77;;;;;;;-1.26;77.06;101814.63;5069142;28;20387;-75
2022/03/03 04:20:56;;;;;;;23.92;11.77;;;;;;;-1.29;76.52;101811.38;5070237;28;20361;-75
2022/03/03 04:23:22;;;;;;;25.08;13.43;;;;;;;-1.39;76.93;101809.34;5072833;28;20422;-75
2022/03/03 04:25:47;;;;;;;24.60;12.05;;;;;;;-1.39;76.49;101809.34;5072717;28;20493;-75
2022/03/03 04:28:13;;;;;;;23.88;12.85;;;;;;;-1.42;77.05;101804.28;5072613;28;20063;-75
2022/03/03 04:30:38;;;;;;;23.73;12.68;;;;;;;-1.45;76.81;101803.66;5072547;28;20036;-75
2022/03/03 04:33:03;;;;;;;27.33;13.00;;;;;;;-1.46;76.95;101801.97;5072350;28;20064;-75
2022/03/03 04:35:29;;;;;;;23.08;12.32;;;;;;;-1.57;77.73;101792.19;5072630;28;20036;-75
2022/03/03 04:37:55;;;;;;;25.67;12.18;;;;;;;-1.51;77.53;101807.47;5072536;28;20068;-75
2022/03/03 04:40:21;;;;;;;26.05;12.85;;;;;;;-1.56;77.72;101801.69;5072520;28;20058;-75
2022/03/03 04:42:46;;;;;;;22.08;10.18;;;;;;;-1.57;78.11;101798.25;5072468;28;20483;-75
2022/03/03 04:45:12;;;;;;;22.50;11.75;;;;;;;-1.60;78.08;101787.97;5072409;28;20029;-75
2022/03/03 04:47:37;;;;;;;25.35;12.55;;;;;;;-1.68;78.98;101778.91;5071982;28;20214;-75
2022/03/03 04:50:04;;;;;;;25.52;13.90;;;;;;;-1.67;78.58;101794.50;5072359;28;20384;-75
2022/03/03 04:52:30;;;;;;;25.70;13.70;;;;;;;-1.73;78.58;101788.81;5072080;28;20434;-75
2022/03/03 04:54:55;;;;;;;24.65;11.95;;;;;;;-1.72;78.33;101790.50;5072205;28;20032;-75
2022/03/03 04:57:21;;;;;;;25.52;13.30;;;;;;;-1.79;78.55;101787.41;5072137;28;20387;-75
2022/03/03 04:59:47;;;;;;;23.55;11.57;;;;;;;-1.79;78.16;101792.63;5072148;28;20028;-75
2022/03/03 05:02:12;;;;;;;24.08;12.00;;;;;;;-1.79;78.32;101783.00;5073202;28;20032;-75
2022/03/03 05:04:38;;;;;;;25.45;13.50;;;;;;;-1.80;77.57;101781.34;5072071;28;20039;-75
2022/03/03 05:07:03;;;;;;;23.85;12.52;;;;;;;-1.76;77.12;101787.22;5072005;28;20127;-75
2022/03/03 05:09:28;;;;;;;25.10;13.32;;;;;;;-1.73;77.78;101789.63;5071585;28;20041;-75
2022/03/03 05:11:54;;;;;;;22.80;13.05;;;;;;;-1.74;77.44;101789.75;5071705;28;20071;-75
2022/03/03 05:14:19;;;;;;;24.88;12.38;;;;;;;-1.76;78.48;101797.66;5071611;28;20388;-75
2022/03/03 05:16:44;;;;;;;21.65;12.27;;;;;;;-1.82;78.74;101793.66;5071833;28;20078;-75
2022/03/03 05:19:10;;;;;;;25.90;12.65;;;;;;;-1.83;78.65;101802.44;5071724;28;20020;-75
2022/03/03 05:21:35;;;;;;;27.02;13.57;;;;;;;-1.75;78.09;101793.31;5071115;28;20552;-75
2022/03/03 05:24:00;;;;;;;29.45;14.23;;;;;;;-1.64;77.55;101794.31;5071509;28;20028;-75
2022/03/03 05:26:26;;;;;;;28.45;13.43;;;;;;;-1.61;77.42;101788.88;5071424;28;20043;-75
2022/03/03 05:28:52;;;;;;;27.80;14.02;;;;;;;-1.59;77.85;101792.25;5053676;28;20372;-75
2022/03/03 05:31:17;;;;;;;27.10;12.23;;;;;;;-1.60;78.19;101782.75;5071145;28;20043;-75
2022/03/03 05:33:43;;;;;;;27.30;14.13;;;;;;;-1.50;77.23;101805.69;5070170;28;20411;-75
2022/03/03 05:36:10;;;;;;;27.15;12.45;;;;;;;-1.47;77.22;101803.72;5071458;28;20112;-75
2022/03/03 05:38:35;;;;;;;25.55;12.85;;;;;;;-1.42;76.33;101800.81;5071262;28;20021;-75
2022/03/03 05:41:02;;;;;;;29.02;14.88;;;;;;;-1.47;76.32;101785.41;5070007;28;20036;-75
2022/03/03 05:43:29;;;;;;;26.60;12.95;;;;;;;-1.31;76.18;101806.25;5071043;28;20028;-75
2022/03/03 05:45:54;;;;;;;26.42;12.02;;;;;;;-1.36;76.34;101780.38;5071244;28;20052;-75
2022/03/03 05:48:21;;;;;;;24.55;12.90;;;;;;;-1.28;75.70;101798.22;5071055;28;20064;-75
2022/03/03 05:50:47;;;;;;;26.83;14.40;;;;;;;-1.30;76.23;101787.00;5070834;28;20943;-75
2022/03/03 05:53:13;;;;;;;27.20;12.93;;;;;;;-1.42;76.85;101774.66;5071380;28;20099;-75
2022/03/03 05:55:44;;;;;;;22.08;12.38;;;;;;;-1.39;75.94;101787.56;5069761;28;20036;-75
2022/03/03 05:58:16;;;;;;;;;;;;;;;-1.31;75.41;101795.78;5071098;28;20024;-75
2022/03/03 06:00:45;;;;;;;;;;;;;;;-1.32;74.65;101792.31;5071500;28;19915;-75
2022/03/03 06:03:14;;;;;;;25.75;12.57;;;;;;;-1.36;75.32;101793.47;5070928;28;20333;-75
2022/03/03 06:05:41;;;;;;;25.13;13.13;;;;;;;-1.39;75.66;101798.03;5070937;28;20028;-75
2022/03/03 06:08:12;;;;;;;24.65;13.18;;;;;;;-1.39;75.64;101804.13;5070672;28;20024;-75
2022/03/03 06:10:45;;;;;;;27.52;14.38;;;;;;;-1.38;75.11;101792.69;5061518;28;20028;-75
2022/03/03 06:13:16;;;;;;;25.73;12.65;;;;;;;-1.29;75.42;101799.13;5070001;28;20445;-75
2022/03/03 06:15:44;;;;;;;23.15;11.82;;;;;;;-1.24;74.79;101799.69;5069977;28;20039;-75
2022/03/03 06:18:09;;;;;;;27.10;13.38;;;;;;;-1.23;74.71;101801.38;5070293;28;20028;-75
2022/03/03 06:20:37;;;;;;;24.40;14.27;;;;;;;-1.20;74.80;101795.94;5052757;28;20149;-75
2022/03/03 06:23:03;;;;;;;26.80;12.60;;;;;;;-1.22;74.92;101781.28;5070334;28;20078;-75
2022/03/03 06:25:28;;;;;;;21.75;10.98;;;;;;;-1.14;74.69;101792.09;5070044;28;20036;-75
2022/03/03 06:27:54;;;;;;;28.40;12.75;;;;;;;-1.16;74.65;101781.72;5070312;28;20024;-75
2022/03/03 06:30:19;;;;;;;23.42;12.35;;;;;;;-1.10;74.59;101790.97;5070245;28;20033;-75
2022/03/03 06:32:45;;;;;;;23.33;11.82;;;;;;;-1.13;74.34;101783.28;5069866;28;21019;-75
2022/03/03 06:35:10;;;;;;;26.77;14.25;;;;;;;-1.06;74.44;101797.69;5070113;28;20048;-75
2022/03/03 06:37:35;;;;;;;25.80;13.00;;;;;;;-1.02;74.31;101799.19;5069537;28;20033;-75
2022/03/03 06:40:01;;;;;;;34.13;14.68;;;;;;;-1.05;74.08;101790.66;5069962;28;20036;-75
2022/03/03 06:42:26;;;;;;;22.63;10.88;;;;;;;-1.05;73.82;101796.72;5068032;28;20388;-75
2022/03/03 06:44:54;;;;;;;26.23;11.85;;;;;;;-1.00;74.16;101801.69;5068550;28;20476;-75
2022/03/03 06:47:22;;;;;;;25.38;11.23;;;;;;;-1.05;74.26;101796.72;5070072;28;20032;-75
2022/03/03 06:49:49;;;;;;;25.17;12.45;;;;;;;-0.99;74.07;101806.81;5068224;28;20383;-75
2022/03/03 06:52:16;;;;;;;24.45;13.45;;;;;;;-0.92;73.86;101802.03;5069129;28;20024;-75
2022/03/03 06:54:45;;;;;;;24.27;13.45;;;;;;;-0.83;73.73;101809.31;5069774;28;20401;-75
2022/03/03 06:57:11;;;;;;;24.52;12.73;;;;;;;-0.82;73.93;101789.19;5069715;28;20043;-75
2022/03/03 06:59:38;;;;;;;27.83;12.85;;;;;;;-0.67;73.30;101809.16;5069797;28;20025;-75
2022/03/03 07:02:04;;;;;;;23.67;12.98;;;;;;;-0.37;72.73;101805.44;5069546;28;20060;-75
2022/03/03 07:04:33;;;;;;;24.55;14.07;;;;;;;-0.03;72.38;101810.13;5069655;28;20166;-75
2022/03/03 07:06:59;;;;;;;29.98;13.70;;;;;;;0.37;71.01;101809.16;5051918;28;20119;-75
2022/03/03 07:09:25;;;;;;;23.48;10.77;;;;;;;0.89;69.48;101815.97;5069273;28;20103;-75
2022/03/03 07:11:50;;;;;;;28.15;14.93;;;;;;;0.98;68.28;101801.34;5069679;28;20036;-75
2022/03/03 07:14:16;;;;;;;26.95;13.55;;;;;;;1.16;67.81;101813.16;5069589;28;20024;-75
2022/03/03 07:16:43;;;;;;;24.75;12.15;;;;;;;1.11;67.55;101806.56;5067908;28;20052;-75
2022/03/03 07:19:20;;;;;;;23.20;12.75;;;;;;;0.93;68.04;101808.72;5069201;28;20025;-75
2022/03/03 07:22:26;;;;;;;25.98;13.27;;;;;;;0.83;69.06;101812.00;5069435;28;20463;-75
2022/03/03 07:25:06;;;;;;;26.15;12.75;;;;;;;0.72;68.33;101808.47;5066309;28;20446;-75
2022/03/03 07:27:33;;;;;;;27.58;14.70;;;;;;;0.76;68.71;101821.28;5069633;28;20510;-75
2022/03/03 07:30:05;;;;;;;31.10;14.20;;;;;;;0.79;68.63;101820.22;5069430;28;20121;-75
2022/03/03 07:32:34;;;;;;;;;;;;;;;0.87;69.15;101823.13;5069941;28;20110;-74
2022/03/03 07:35:05;;;;;;;23.80;12.68;;;;;;;0.82;68.78;101820.81;5069106;28;20283;-75
2022/03/03 07:37:36;;;;;;;26.60;12.67;;;;;;;0.82;68.92;101823.44;5067990;28;20462;-74
2022/03/03 07:40:09;;;;;;;28.58;14.70;;;;;;;0.76;68.94;101821.28;5069499;28;20033;-74
2022/03/03 07:42:35;;;;;;;29.50;16.52;;;;;;;0.91;69.11;101821.13;5069071;28;20029;-74
2022/03/03 07:45:03;;;;;;;29.50;13.90;;;;;;;1.10;68.97;101824.09;5068839;28;20031;-74
2022/03/03 07:47:29;;;;;;;31.58;14.93;;;;;;;1.45;68.06;101821.53;5069286;28;20399;-74
2022/03/03 07:49:56;;;;;;;25.95;13.32;;;;;;;1.70;67.35;101822.31;5069129;28;20490;-74
2022/03/03 07:52:23;;;;;;;25.75;13.13;;;;;;;1.95;66.62;101821.31;5067773;28;20119;-74
2022/03/03 07:54:48;;;;;;;24.98;13.43;;;;;;;2.15;66.51;101828.53;5071305;28;20064;-74
2022/03/03 07:57:16;;;;;;;30.42;15.23;;;;;;;2.36;65.67;101830.47;5071718;28;20117;-74
2022/03/03 07:59:47;;;;;;;26.38;13.75;;;;;;;2.79;65.24;101816.56;5072974;28;20035;-74
2022/03/03 08:02:19;;;;;;;26.48;15.27;;;;;;;3.35;63.29;101826.94;5072640;28;20102;-74
2022/03/03 08:04:46;;;;;;;30.25;14.57;;;;;;;3.80;61.32;101832.06;5073026;28;20037;-74
2022/03/03 08:07:14;;;;;;;27.52;14.80;;;;;;;3.66;61.74;101824.44;5072870;28;20882;-74
2022/03/03 08:09:41;;;;;;;25.88;12.57;;;;;;;3.42;61.77;101838.69;5072731;28;20025;-74
2022/03/03 08:12:07;;;;;;;32.03;14.48;;;;;;;3.27;61.92;101834.66;5071319;28;20455;-75
2022/03/03 08:14:34;;;;;;;27.20;12.95;;;;;;;3.26;62.67;101831.19;5072856;28;20536;-75
2022/03/03 08:16:59;;;;;;;25.05;13.77;;;;;;;3.27;61.60;101819.69;5072716;28;20032;-75
2022/03/03 08:19:24;;;;;;;25.88;13.63;;;;;;;3.48;61.37;101838.19;5072332;28;20090;-75
2022/03/03 08:21:50;;;;;;;27.80;12.75;;;;;;;3.57;61.43;101833.13;5072467;28;20108;-75
2022/03/03 08:24:16;;;;;;;25.33;13.93;;;;;;;3.62;60.36;101818.59;5072332;28;20510;-75
2022/03/03 08:26:43;;;;;;;26.50;12.68;;;;;;;3.82;60.24;101840.66;5071156;28;20483;-75
2022/03/03 08:29:11;;;;;;;26.92;12.35;;;;;;;3.93;60.70;101829.22;5072315;28;20032;-75
2022/03/03 08:31:48;;;;;;;23.08;12.50;;;;;;;4.03;60.58;101826.63;5054655;28;20163;-74
2022/03/03 08:34:14;;;;;;;26.85;12.68;;;;;;;4.06;60.32;101829.00;5072114;28;20135;-74
2022/03/03 08:36:47;;;;;;;27.60;13.85;;;;;;;4.07;60.73;101828.88;5072365;28;20162;-74
2022/03/03 08:39:15;;;;;;;26.65;12.52;;;;;;;4.09;60.28;101829.59;5070982;28;20028;-75
2022/03/03 08:41:41;;;;;;;23.98;13.68;;;;;;;4.10;60.01;101835.72;5069142;28;20020;-75
2022/03/03 08:44:08;;;;;;;25.13;12.98;;;;;;;4.14;60.07;101831.84;5065714;28;20365;-75
2022/03/03 08:46:35;;;;;;;24.42;11.40;;;;;;;4.18;59.25;101822.69;5068268;28;20063;-75
2022/03/03 08:49:05;;;;;;;25.00;10.77;;;;;;;4.32;59.26;101829.41;5067879;28;20397;-75
2022/03/03 08:51:31;;;;;;;21.58;11.43;;;;;;;4.40;58.11;101829.59;5066154;28;20012;-75
2022/03/03 08:53:57;;;;;;;20.02;10.13;;;;;;;4.51;58.69;101828.69;5067646;28;20081;-75
2022/03/03 08:56:23;;;;;;;23.33;10.82;;;;;;;4.56;57.89;101822.03;5067930;28;20040;-76
2022/03/03 08:58:53;;;;;;;27.45;12.95;;;;;;;4.67;57.47;101820.28;5065732;28;20047;-77
2022/03/03 09:01:19;;;;;;;24.70;11.98;;;;;;;4.76;57.73;101816.81;5070139;28;20036;-76
2022/03/03 09:03:45;;;;;;;22.02;10.68;;;;;;;4.89;57.35;101819.22;5069762;28;20093;-75
2022/03/03 09:06:18;;;;;;;22.20;11.60;;;;;;;5.01;56.31;101823.41;5071181;28;20063;-76
2022/03/03 09:08:43;;;;;;;25.63;11.57;;;;;;;5.10;57.02;101822.59;5071753;28;20119;-76
2022/03/03 09:11:09;;;;;;;23.42;12.68;;;;;;;5.16;55.78;101808.84;5071755;28;20116;-76
2022/03/03 09:13:35;;;;;;;38.72;17.95;;;;;;;5.29;54.92;101811.19;5053727;28;20896;-76
2022/03/03 09:16:00;;;;;;;23.33;10.98;;;;;;;5.44;52.44;101811.63;5070339;28;20049;-77
2022/03/03 09:18:26;;;;;;;21.95;10.40;;;;;;;5.49;52.48;101817.34;5071791;28;20078;-76
2022/03/03 09:20:52;;;;;;;18.25;10.73;;;;;;;5.58;51.81;101807.72;5071343;28;20470;-76
2022/03/03 09:23:17;;;;;;;23.90;10.90;;;;;;;5.68;51.28;101813.84;5071352;28;20066;-76
2022/03/03 09:25:43;;;;;;;28.98;12.95;;;;;;;5.72;54.05;101809.94;5071570;28;20036;-76
2022/03/03 09:28:09;;;;;;;23.42;10.80;;;;;;;5.88;51.07;101815.47;5070109;28;20032;-75
2022/03/03 09:30:35;;;;;;;26.15;12.93;;;;;;;5.97;52.30;101811.16;5071292;28;20051;-76
2022/03/03 09:33:01;;;;;;;55.60;28.10;;;;;;;6.08;52.88;101804.91;5069725;28;20085;-76
2022/03/03 09:35:28;;;;;;;34.40;19.42;;;;;;;6.14;53.40;101794.53;5071312;28;20036;-76
2022/03/03 09:37:53;;;;;;;23.77;11.32;;;;;;;6.28;51.32;101801.19;5071385;28;20028;-76
2022/03/03 09:40:19;;;;;;;20.35;10.77;;;;;;;6.34;50.62;101807.72;5071402;28;20426;-76
2022/03/03 09:43:04;;;;;;;23.00;11.32;;;;;;;6.37;50.65;101804.81;5071275;28;20112;-76
2022/03/03 09:45:32;;;;;;;20.40;9.77;;;;;;;6.44;50.01;101799.75;5071358;28;20049;-76
2022/03/03 09:47:58;;;;;;;27.38;11.10;;;;;;;6.53;52.25;101805.00;5070929;28;20071;-76
2022/03/03 09:50:25;;;;;;;21.77;11.40;;;;;;;6.65;50.14;101796.84;5071008;28;20036;-76
2022/03/03 09:52:51;;;;;;;22.98;9.38;;;;;;;6.69;50.35;101792.94;5071029;28;20476;-76
2022/03/03 09:55:17;;;;;;;20.75;9.30;;;;;;;6.79;49.56;101807.81;5069677;28;20047;-76
2022/03/03 09:57:43;;;;;;;22.83;10.43;;;;;;;6.84;49.23;101799.41;5070753;28;20032;-76
2022/03/03 10:00:11;;;;;;;22.38;10.23;;;;;;;6.86;50.28;101781.50;5070984;28;20039;-76
2022/03/03 10:02:55;;;;;;;19.10;9.55;;;;;;;7.02;48.96;101800.28;5069399;28;20384;-76
2022/03/03 10:05:47;;;;;;;19.48;9.80;;;;;;;7.07;49.99;101797.16;5070714;28;20114;-76
2022/03/03 10:08:18;;;;;;;;;;;;;;;7.15;47.37;101797.25;5071288;28;20051;-76
2022/03/03 10:10:46;;;;;;;20.67;9.87;;;;;;;7.22;48.84;101798.28;5070729;28;19970;-76
2022/03/03 10:13:17;;;;;;;20.23;10.25;;;;;;;7.28;47.17;101780.09;5070478;28;20012;-76
2022/03/03 10:15:44;;;;;;;17.80;9.40;;;;;;;7.36;46.23;101791.66;5070691;28;20059;-76
2022/03/03 10:18:13;;;;;;;20.55;9.23;;;;;;;7.44;48.11;101785.53;5070177;28;20028;-76
2022/03/03 10:20:52;;;;;;;17.83;9.27;;;;;;;7.53;47.30;101783.81;5071529;28;20120;-76
2022/03/03 10:23:30;;;;;;;20.77;9.20;;;;;;;7.58;46.99;101779.72;5069873;28;20345;-76
2022/03/03 10:25:58;;;;;;;19.67;9.18;;;;;;;7.63;48.63;101780.06;5070171;28;20032;-76
2022/03/03 10:28:26;;;;;;;19.38;9.38;;;;;;;7.73;46.50;101790.63;5070178;28;20036;-76
2022/03/03 10:31:02;;;;;;;24.80;11.68;;;;;;;7.82;47.99;101788.84;5070110;28;20016;-76
2022/03/03 10:33:38;;;;;;;28.30;13.38;;;;;;;7.92;48.85;101783.44;5068944;28;20377;-76
2022/03/03 10:36:18;;;;;;;90.70;47.78;;;;;;;8.08;46.18;101786.19;5070040;28;20020;-76
2022/03/03 10:38:51;;;;;;;22.38;11.90;;;;;;;8.08;45.92;101784.34;5070207;28;20381;-76
2022/03/03 10:41:37;;;;;;;20.83;10.52;;;;;;;8.15;44.87;101779.25;5069897;28;20507;-76
2022/03/03 10:44:11;;;;;;;19.80;10.35;;;;;;;8.07;44.71;101785.38;5069986;28;20039;-76
2022/03/03 10:46:40;;;;;;;18.60;9.75;;;;;;;8.10;44.01;101782.38;5070007;28;20024;-76
2022/03/03 10:49:19;;;;;;;20.52;9.95;;;;;;;8.18;45.13;101778.13;5068524;28;20031;-76
2022/03/03 10:51:44;;;;;;;20.63;9.40;;;;;;;8.23;47.40;101773.16;5069881;28;20024;-76
2022/03/03 10:54:10;;;;;;;19.60;9.68;;;;;;;8.35;43.96;101777.19;5069870;28;20491;-76
2022/03/03 10:56:48;;;;;;;19.75;10.93;;;;;;;8.39;46.36;101772.41;5069763;28;20047;-76
2022/03/03 10:59:24;;;;;;;18.88;9.13;;;;;;;8.47;44.85;101783.09;5069538;28;20481;-76
2022/03/03 11:01:51;;;;;;;19.80;9.63;;;;;;;8.49;42.44;101773.16;5069469;28;20461;-76
2022/03/03 11:04:20;;;;;;;21.70;9.48;;;;;;;8.51;42.04;101772.00;5069786;28;20062;-76
2022/03/03 11:06:49;;;;;;;19.83;9.85;;;;;;;8.52;42.07;101783.47;5069852;28;20078;-76
2022/03/03 11:09:16;;;;;;;18.92;8.85;;;;;;;8.53;41.37;101782.44;5068283;28;20040;-76
2022/03/03 11:11:41;;;;;;;17.58;8.82;;;;;;;8.55;42.83;101775.16;5069622;28;20055;-76
2022/03/03 11:14:07;;;;;;;17.35;9.63;;;;;;;8.55;39.58;101769.84;5069468;28;20511;-76
2022/03/03 11:16:33;;;;;;;19.05;10.25;;;;;;;8.55;39.26;101775.97;5069656;28;20032;-76